sensor_id;sensor_type;location;lat;lon;timestamp;P1;durP1;ratioP1;P2;durP2;ratioP2
39698;SDS011;25372;50.582;12.250;2024-02-15T00:03:42;0.50;;;0.50;;
39698;SDS011;25372;50.582;12.250;2024-02-15T00:14:05;0.90;;;0.90;;
39698;SDS011;25372;50.582;12.250;2024-02-15T00:24:29;2.25;;;1.85;;
39698;SDS011;25372;50.582;12.250;2024-02-15T00:34:51;7.10;;;2.33;;
39698;SDS011;25372;50.582;12.250;2024-02-15T00:45:13;3.17;;;2.53;;
39698;SDS011;25372;50.582;12.250;2024-02-15T00:55:35;3.03;;;2.13;;
39698;SDS011;25372;50.582;12.250;2024-02-15T01:05:56;3.45;;;2.10;;
39698;SDS011;25372;50.582;12.250;2024-02-15T01:16:19;2.92;;;2.10;;
39698;SDS011;25372;50.582;12.250;2024-02-15T01:26:41;0.60;;;0.60;;
39698;SDS011;25372;50.582;12.250;2024-02-15T01:37:03;0.90;;;0.43;;
39698;SDS011;25372;50.582;12.250;2024-02-15T01:47:25;0.30;;;0.30;;
39698;SDS011;25372;50.582;12.250;2024-02-15T01:57:47;0.47;;;0.47;;
39698;SDS011;25372;50.582;12.250;2024-02-15T02:08:09;0.57;;;0.50;;
39698;SDS011;25372;50.582;12.250;2024-02-15T02:18:31;0.50;;;0.50;;
39698;SDS011;25372;50.582;12.250;2024-02-15T02:28:54;3.17;;;1.80;;
39698;SDS011;25372;50.582;12.250;2024-02-15T02:39:15;3.00;;;2.40;;
39698;SDS011;25372;50.582;12.250;2024-02-15T02:49:38;3.75;;;2.45;;
39698;SDS011;25372;50.582;12.250;2024-02-15T02:59:59;4.03;;;0.80;;
39698;SDS011;25372;50.582;12.250;2024-02-15T03:10:25;1.60;;;0.43;;
39698;SDS011;25372;50.582;12.250;2024-02-15T03:20:46;0.50;;;0.50;;
39698;SDS011;25372;50.582;12.250;2024-02-15T03:31:09;0.75;;;0.50;;
39698;SDS011;25372;50.582;12.250;2024-02-15T03:41:31;0.30;;;0.30;;
39698;SDS011;25372;50.582;12.250;2024-02-15T03:51:54;0.50;;;0.50;;
39698;SDS011;25372;50.582;12.250;2024-02-15T04:02:15;0.60;;;0.57;;
39698;SDS011;25372;50.582;12.250;2024-02-15T04:12:39;5.65;;;1.95;;
39698;SDS011;25372;50.582;12.250;2024-02-15T04:23:01;4.28;;;2.15;;
39698;SDS011;25372;50.582;12.250;2024-02-15T04:33:26;0.50;;;0.50;;
39698;SDS011;25372;50.582;12.250;2024-02-15T04:43:46;0.32;;;0.32;;
39698;SDS011;25372;50.582;12.250;2024-02-15T04:54:09;0.65;;;0.65;;
39698;SDS011;25372;50.582;12.250;2024-02-15T05:14:56;0.40;;;0.40;;
39698;SDS011;25372;50.582;12.250;2024-02-15T05:25:19;0.40;;;0.40;;
39698;SDS011;25372;50.582;12.250;2024-02-15T05:35:44;0.40;;;0.40;;
39698;SDS011;25372;50.582;12.250;2024-02-15T05:46:09;0.85;;;0.85;;
39698;SDS011;25372;50.582;12.250;2024-02-15T05:56:34;5.80;;;3.20;;
39698;SDS011;25372;50.582;12.250;2024-02-15T06:06:55;3.25;;;2.13;;
39698;SDS011;25372;50.582;12.250;2024-02-15T06:17:21;5.20;;;2.35;;
39698;SDS011;25372;50.582;12.250;2024-02-15T06:27:42;4.28;;;2.80;;
39698;SDS011;25372;50.582;12.250;2024-02-15T06:38:04;4.68;;;3.33;;
39698;SDS011;25372;50.582;12.250;2024-02-15T06:48:41;7.28;;;3.03;;
39698;SDS011;25372;50.582;12.250;2024-02-15T06:59:05;7.47;;;2.97;;
39698;SDS011;25372;50.582;12.250;2024-02-15T07:09:27;7.43;;;3.63;;
39698;SDS011;25372;50.582;12.250;2024-02-15T07:19:49;6.68;;;2.90;;
39698;SDS011;25372;50.582;12.250;2024-02-15T07:30:11;8.35;;;4.13;;
39698;SDS011;25372;50.582;12.250;2024-02-15T07:40:34;6.10;;;3.38;;
39698;SDS011;25372;50.582;12.250;2024-02-15T07:50:55;4.90;;;2.53;;
39698;SDS011;25372;50.582;12.250;2024-02-15T08:01:19;0.50;;;0.50;;
39698;SDS011;25372;50.582;12.250;2024-02-15T08:11:41;1.00;;;0.88;;
39698;SDS011;25372;50.582;12.250;2024-02-15T08:22:05;7.05;;;3.42;;
39698;SDS011;25372;50.582;12.250;2024-02-15T08:32:27;6.63;;;3.87;;
39698;SDS011;25372;50.582;12.250;2024-02-15T08:42:49;6.47;;;3.60;;
39698;SDS011;25372;50.582;12.250;2024-02-15T08:53:11;17.55;;;4.55;;
39698;SDS011;25372;50.582;12.250;2024-02-15T09:03:33;5.47;;;3.20;;
39698;SDS011;25372;50.582;12.250;2024-02-15T09:13:55;3.03;;;1.38;;
39698;SDS011;25372;50.582;12.250;2024-02-15T09:24:17;1.05;;;0.88;;
39698;SDS011;25372;50.582;12.250;2024-02-15T09:34:38;1.85;;;0.80;;
39698;SDS011;25372;50.582;12.250;2024-02-15T09:45:01;1.65;;;0.60;;
39698;SDS011;25372;50.582;12.250;2024-02-15T09:55:22;3.28;;;0.60;;
39698;SDS011;25372;50.582;12.250;2024-02-15T10:05:48;1.52;;;1.20;;
39698;SDS011;25372;50.582;12.250;2024-02-15T10:16:14;1.50;;;0.77;;
39698;SDS011;25372;50.582;12.250;2024-02-15T10:26:37;1.17;;;0.60;;
39698;SDS011;25372;50.582;12.250;2024-02-15T10:37:10;1.33;;;0.95;;
39698;SDS011;25372;50.582;12.250;2024-02-15T10:47:33;1.00;;;0.90;;
39698;SDS011;25372;50.582;12.250;2024-02-15T10:57:56;0.70;;;0.70;;
39698;SDS011;25372;50.582;12.250;2024-02-15T11:08:24;0.80;;;0.80;;
39698;SDS011;25372;50.582;12.250;2024-02-15T11:18:47;2.20;;;1.25;;
39698;SDS011;25372;50.582;12.250;2024-02-15T11:29:12;1.75;;;1.02;;
39698;SDS011;25372;50.582;12.250;2024-02-15T11:40:09;0.50;;;0.50;;
39698;SDS011;25372;50.582;12.250;2024-02-15T11:50:34;3.65;;;1.05;;
39698;SDS011;25372;50.582;12.250;2024-02-15T12:00:58;0.63;;;0.60;;
39698;SDS011;25372;50.582;12.250;2024-02-15T12:11:38;0.50;;;0.50;;
39698;SDS011;25372;50.582;12.250;2024-02-15T12:22:18;1.55;;;0.90;;
39698;SDS011;25372;50.582;12.250;2024-02-15T12:32:42;1.27;;;1.17;;
39698;SDS011;25372;50.582;12.250;2024-02-15T12:43:04;0.80;;;0.70;;
39698;SDS011;25372;50.582;12.250;2024-02-15T12:53:30;0.40;;;0.40;;
39698;SDS011;25372;50.582;12.250;2024-02-15T13:03:50;3.17;;;0.82;;
39698;SDS011;25372;50.582;12.250;2024-02-15T13:14:13;0.88;;;0.70;;
39698;SDS011;25372;50.582;12.250;2024-02-15T13:24:34;1.10;;;0.65;;
39698;SDS011;25372;50.582;12.250;2024-02-15T13:34:59;1.27;;;0.90;;
39698;SDS011;25372;50.582;12.250;2024-02-15T13:45:27;0.40;;;0.40;;
39698;SDS011;25372;50.582;12.250;2024-02-15T13:55:53;0.80;;;0.80;;
39698;SDS011;25372;50.582;12.250;2024-02-15T14:06:14;0.40;;;0.40;;
39698;SDS011;25372;50.582;12.250;2024-02-15T14:16:36;1.40;;;0.52;;
39698;SDS011;25372;50.582;12.250;2024-02-15T14:26:58;0.40;;;0.40;;
39698;SDS011;25372;50.582;12.250;2024-02-15T14:37:20;1.40;;;0.70;;
39698;SDS011;25372;50.582;12.250;2024-02-15T14:47:42;0.60;;;0.60;;
39698;SDS011;25372;50.582;12.250;2024-02-15T14:58:04;0.60;;;0.60;;
39698;SDS011;25372;50.582;12.250;2024-02-15T15:08:27;0.60;;;0.60;;
39698;SDS011;25372;50.582;12.250;2024-02-15T15:19:06;0.52;;;0.50;;
39698;SDS011;25372;50.582;12.250;2024-02-15T15:29:28;0.57;;;0.57;;
39698;SDS011;25372;50.582;12.250;2024-02-15T15:39:51;1.45;;;0.77;;
39698;SDS011;25372;50.582;12.250;2024-02-15T15:50:14;1.00;;;0.60;;
39698;SDS011;25372;50.582;12.250;2024-02-15T16:00:37;2.75;;;1.95;;
39698;SDS011;25372;50.582;12.250;2024-02-15T16:10:58;2.80;;;2.47;;
39698;SDS011;25372;50.582;12.250;2024-02-15T16:21:21;6.20;;;3.15;;
39698;SDS011;25372;50.582;12.250;2024-02-15T16:31:42;6.47;;;3.13;;
39698;SDS011;25372;50.582;12.250;2024-02-15T16:42:07;8.98;;;4.13;;
39698;SDS011;25372;50.582;12.250;2024-02-15T17:02:53;5.00;;;2.95;;
39698;SDS011;25372;50.582;12.250;2024-02-15T17:13:14;4.75;;;2.72;;
39698;SDS011;25372;50.582;12.250;2024-02-15T17:23:37;5.03;;;3.05;;
39698;SDS011;25372;50.582;12.250;2024-02-15T17:34:02;4.05;;;3.45;;
39698;SDS011;25372;50.582;12.250;2024-02-15T17:44:27;5.65;;;3.10;;
39698;SDS011;25372;50.582;12.250;2024-02-15T17:54:48;7.47;;;3.97;;
39698;SDS011;25372;50.582;12.250;2024-02-15T18:05:11;7.72;;;5.10;;
39698;SDS011;25372;50.582;12.250;2024-02-15T18:15:32;10.82;;;5.53;;
39698;SDS011;25372;50.582;12.250;2024-02-15T18:26:00;8.77;;;5.13;;
39698;SDS011;25372;50.582;12.250;2024-02-15T18:36:21;7.75;;;4.97;;
39698;SDS011;25372;50.582;12.250;2024-02-15T18:46:44;8.43;;;5.28;;
39698;SDS011;25372;50.582;12.250;2024-02-15T18:57:07;8.95;;;4.65;;
39698;SDS011;25372;50.582;12.250;2024-02-15T19:07:31;7.93;;;4.47;;
39698;SDS011;25372;50.582;12.250;2024-02-15T19:17:52;12.00;;;5.28;;
39698;SDS011;25372;50.582;12.250;2024-02-15T19:28:15;9.82;;;5.50;;
39698;SDS011;25372;50.582;12.250;2024-02-15T19:38:36;9.70;;;5.15;;
39698;SDS011;25372;50.582;12.250;2024-02-15T19:48:59;10.40;;;5.72;;
39698;SDS011;25372;50.582;12.250;2024-02-15T19:59:20;11.18;;;6.55;;
39698;SDS011;25372;50.582;12.250;2024-02-15T20:09:42;11.77;;;6.10;;
39698;SDS011;25372;50.582;12.250;2024-02-15T20:20:03;12.68;;;6.38;;
39698;SDS011;25372;50.582;12.250;2024-02-15T20:30:27;18.02;;;7.78;;
39698;SDS011;25372;50.582;12.250;2024-02-15T20:40:47;14.88;;;6.82;;
39698;SDS011;25372;50.582;12.250;2024-02-15T20:51:10;15.73;;;7.97;;
39698;SDS011;25372;50.582;12.250;2024-02-15T21:01:31;15.60;;;7.72;;
39698;SDS011;25372;50.582;12.250;2024-02-15T21:11:53;19.67;;;8.88;;
39698;SDS011;25372;50.582;12.250;2024-02-15T21:22:15;14.85;;;7.70;;
39698;SDS011;25372;50.582;12.250;2024-02-15T21:32:38;17.42;;;8.15;;
39698;SDS011;25372;50.582;12.250;2024-02-15T21:42:58;14.05;;;8.00;;
39698;SDS011;25372;50.582;12.250;2024-02-15T21:53:21;15.75;;;7.35;;
39698;SDS011;25372;50.582;12.250;2024-02-15T22:03:42;17.50;;;8.20;;
39698;SDS011;25372;50.582;12.250;2024-02-15T22:14:04;17.67;;;8.48;;
39698;SDS011;25372;50.582;12.250;2024-02-15T22:24:26;16.75;;;9.25;;
39698;SDS011;25372;50.582;12.250;2024-02-15T22:34:49;14.70;;;7.75;;
39698;SDS011;25372;50.582;12.250;2024-02-15T22:45:11;14.50;;;7.05;;
39698;SDS011;25372;50.582;12.250;2024-02-15T22:55:34;15.52;;;7.10;;
39698;SDS011;25372;50.582;12.250;2024-02-15T23:05:54;18.70;;;6.93;;
39698;SDS011;25372;50.582;12.250;2024-02-15T23:16:17;19.90;;;7.13;;
39698;SDS011;25372;50.582;12.250;2024-02-15T23:26:39;12.90;;;6.60;;
39698;SDS011;25372;50.582;12.250;2024-02-15T23:37:01;20.55;;;7.68;;
39698;SDS011;25372;50.582;12.250;2024-02-15T23:47:40;14.07;;;6.80;;
39698;SDS011;25372;50.582;12.250;2024-02-15T23:58:02;22.08;;;8.43;;
